Time;durP1;ratioP1;P1;durP2;ratioP2;P2;SDS_P1;SDS_P2;PMS_P1;PMS_P2;Temp;Humidity;BMP_temperature;BMP_pressure;BME280_temperature;BME280_humidity;BME280_pressure;Samples;Min_cycle;Max_cycle;Signal;HPM_P1;HPM_P2
2022/10/15 00:07:04;;;;;;;0.20;0.10;;;;;;;;;;5047190;28;20060;-58
2022/10/15 00:12:46;;;;;;;0.68;0.38;;;;;;;;;;5105045;28;20038;-58
2022/10/15 00:15:45;;;;;;;1.40;0.45;;;;;;;;;;5129495;28;20095;-59
2022/10/15 00:18:47;;;;;;;0.40;0.20;;;;;;;;;;5096330;28;20028;-58
2022/10/15 00:24:28;;;;;;;0.30;0.10;;;;;;;;;;5128922;28;20054;-58
2022/10/15 00:27:06;;;;;;;0.77;0.13;;;;;;;;;;5110714;28;20051;-58
2022/10/15 00:30:24;;;;;;;;;;;;;;;;;;;;;
2022/10/15 00:33:12;;;;;;;0.57;0.22;;;;;;;;;;5042034;28;20069;-58
2022/10/15 00:36:15;;;;;;;0.15;0.10;;;;;;;;;;5015319;28;20049;-58
2022/10/15 00:38:48;;;;;;;0.63;0.25;;;;;;;;;;5046571;28;20036;-58
2022/10/15 00:41:28;;;;;;;0.70;0.20;;;;;;;;;;5046569;28;20048;-58
2022/10/15 00:44:13;;;;;;;0.20;0.10;;;;;;;;;;5027998;28;20052;-58
2022/10/15 00:47:14;;;;;;;;;;;;;;;;;;;;;
2022/10/15 00:50:13;;;;;;;0.13;0.10;;;;;;;;;;5125639;28;20485;-58
2022/10/15 00:56:19;;;;;;;0.65;0.25;;;;;;;;;;5076599;28;20094;-58
2022/10/15 01:01:58;;;;;;;1.83;0.75;;;;;;;;;;5107986;28;20517;-58
2022/10/15 01:04:29;;;;;;;;;;;;;;;;;;5090945;28;20020;-58
2022/10/15 01:07:47;;;;;;;0.10;0.00;;;;;;;;;;5114596;28;19947;-59
2022/10/15 01:10:28;;;;;;;0.68;0.10;;;;;;;;;;5064570;28;20044;-59
2022/10/15 01:16:21;;;;;;;0.32;0.20;;;;;;;;;;5134052;28;20031;-58
2022/10/15 01:19:12;;;;;;;0.90;0.13;;;;;;;;;;5150032;28;20018;-58
2022/10/15 01:21:56;;;;;;;0.20;0.10;;;;;;;;;;5150661;27;20027;-58
2022/10/15 01:24:47;;;;;;;0.10;0.00;;;;;;;;;;5154182;27;20027;-59
2022/10/15 01:31:17;;;;;;;;;;;;;;;;;;;;;
2022/10/15 01:34:20;;;;;;;0.43;0.20;;;;;;;;;;5153260;27;20043;-58
2022/10/15 01:37:06;;;;;;;0.00;0.00;;;;;;;;;;5153754;27;20023;-58
2022/10/15 01:39:56;;;;;;;0.20;0.10;;;;;;;;;;5153646;27;20030;-58
2022/10/15 01:49:15;;;;;;;0.35;0.13;;;;;;;;;;5153583;27;20026;-58
2022/10/15 01:51:43;;;;;;;0.30;0.10;;;;;;;;;;5130610;27;20090;-58
2022/10/15 01:54:19;;;;;;;0.10;0.00;;;;;;;;;;5151899;27;20043;-59
2022/10/15 01:57:10;;;;;;;1.67;0.20;;;;;;;;;;5135171;27;20098;-58
2022/10/15 01:59:43;;;;;;;0.20;0.10;;;;;;;;;;5153218;27;20031;-58
2022/10/15 02:02:49;;;;;;;;;;;;;;;;;;;;;
2022/10/15 02:05:35;;;;;;;0.00;0.00;;;;;;;;;;5145149;27;20101;-59
2022/10/15 02:14:51;;;;;;;2.60;0.13;;;;;;;;;;5049602;28;20052;-59
2022/10/15 02:17:55;;;;;;;0.32;0.20;;;;;;;;;;5032523;28;20560;-58
2022/10/15 02:20:45;;;;;;;;;;;;;;;;;;;;;
2022/10/15 02:23:30;;;;;;;0.45;0.20;;;;;;;;;;5035828;28;20076;-59
2022/10/15 02:26:13;;;;;;;0.80;0.20;;;;;;;;;;5049211;28;20030;-59
2022/10/15 02:31:56;;;;;;;1.38;0.35;;;;;;;;;;5148570;27;20094;-58
2022/10/15 02:34:53;;;;;;;0.90;0.22;;;;;;;;;;5152311;27;20046;-58
2022/10/15 02:37:30;;;;;;;0.32;0.20;;;;;;;;;;5152635;27;20087;-58
2022/10/15 02:45:59;;;;;;;0.50;0.30;;;;;;;;;;5017650;28;20107;-58
2022/10/15 02:48:35;;;;;;;0.30;0.15;;;;;;;;;;4986755;28;20035;-59
2022/10/15 02:54:13;;;;;;;4.20;1.35;;;;;;;;;;5083179;28;20067;-58
2022/10/15 03:00:11;;;;;;;0.52;0.20;;;;;;;;;;5109422;28;20547;-58
2022/10/15 03:02:58;;;;;;;1.35;0.25;;;;;;;;;;5092545;28;20138;-58
2022/10/15 03:05:44;;;;;;;0.40;0.10;;;;;;;;;;5109011;28;20028;-58
2022/10/15 03:08:49;;;;;;;0.30;0.13;;;;;;;;;;5090556;28;20035;-58
2022/10/15 03:11:33;;;;;;;0.65;0.05;;;;;;;;;;5087697;28;20044;-58
2022/10/15 03:14:20;;;;;;;0.08;0.00;;;;;;;;;;5092041;28;20032;-59
2022/10/15 03:17:02;;;;;;;0.10;0.03;;;;;;;;;;5070254;28;20114;-58
2022/10/15 03:19:44;;;;;;;0.10;0.08;;;;;;;;;;5124051;27;20035;-58
2022/10/15 03:22:36;;;;;;;0.80;0.43;;;;;;;;;;5151659;27;20031;-58
2022/10/15 03:25:29;;;;;;;;;;;;;;;;;;;;;
2022/10/15 03:31:21;;;;;;;0.55;0.10;;;;;;;;;;5103109;28;20032;-58
2022/10/15 03:40:37;;;;;;;0.15;0.10;;;;;;;;;;5119569;27;20431;-58
2022/10/15 03:46:34;;;;;;;1.02;0.45;;;;;;;;;;5052756;28;20057;-58
2022/10/15 03:49:25;;;;;;;0.60;0.20;;;;;;;;;;5020517;28;20029;-58
2022/10/15 03:52:20;;;;;;;0.50;0.20;;;;;;;;;;5123264;27;20027;-58
2022/10/15 03:55:04;;;;;;;0.03;0.03;;;;;;;;;;5033792;28;20898;-59
2022/10/15 03:57:43;;;;;;;0.30;0.10;;;;;;;;;;5115989;28;20107;-58
2022/10/15 04:00:27;;;;;;;0.13;0.05;;;;;;;;;;5116319;28;20103;-58
2022/10/15 04:14:55;;;;;;;2.70;0.28;;;;;;;;;;5116146;28;20077;-58
2022/10/15 04:17:50;;;;;;;0.30;0.20;;;;;;;;;;5116032;28;20024;-58
2022/10/15 04:20:55;;;;;;;0.20;0.10;;;;;;;;;;5088536;28;20020;-58
2022/10/15 04:23:51;;;;;;;0.17;0.10;;;;;;;;;;4992993;28;20030;-58
2022/10/15 04:26:55;;;;;;;0.77;0.20;;;;;;;;;;5036507;28;20023;-58
2022/10/15 04:29:37;;;;;;;0.30;0.20;;;;;;;;;;4991609;28;20038;-58
2022/10/15 04:32:21;;;;;;;1.10;0.90;;;;;;;;;;4992011;28;20022;-58
2022/10/15 04:35:19;;;;;;;0.68;0.10;;;;;;;;;;4991331;28;20053;-58
2022/10/15 04:37:58;;;;;;;0.68;0.25;;;;;;;;;;4989489;28;20049;-58
2022/10/15 04:40:36;;;;;;;0.10;0.00;;;;;;;;;;4992625;28;20050;-58
2022/10/15 04:43:35;;;;;;;2.05;0.38;;;;;;;;;;4994410;28;20507;-59
2022/10/15 04:46:03;;;;;;;2.33;0.47;;;;;;;;;;4990599;28;20026;-58
2022/10/15 04:48:51;;;;;;;0.65;0.25;;;;;;;;;;4990229;28;20480;-58
2022/10/15 04:51:32;;;;;;;1.50;0.25;;;;;;;;;;4973457;28;20496;-59
2022/10/15 04:54:01;;;;;;;0.35;0.13;;;;;;;;;;5056170;27;20126;-59
2022/10/15 04:56:58;;;;;;;0.30;0.15;;;;;;;;;;5115772;27;20092;-58
2022/10/15 05:00:08;;;;;;;1.27;0.50;;;;;;;;;;5015422;28;20543;-58
2022/10/15 05:02:34;;;;;;;0.03;0.00;;;;;;;;;;5016153;28;20600;-58
2022/10/15 05:05:21;;;;;;;0.35;0.10;;;;;;;;;;5032440;28;20115;-58
2022/10/15 05:08:10;;;;;;;0.35;0.10;;;;;;;;;;5032266;28;20534;-58
2022/10/15 05:11:11;;;;;;;0.20;0.00;;;;;;;;;;5110527;28;20529;-58
2022/10/15 05:13:46;;;;;;;;;;;;;;;;;;5135161;28;20027;-58
2022/10/15 05:16:42;;;;;;;0.22;0.10;;;;;;;;;;5116934;28;19961;-58
2022/10/15 05:19:26;;;;;;;0.25;0.10;;;;;;;;;;5113647;28;20038;-58
2022/10/15 05:22:29;;;;;;;0.63;0.10;;;;;;;;;;5135107;28;20030;-58
2022/10/15 05:25:52;;;;;;;0.22;0.20;;;;;;;;;;5135496;28;20084;-58
2022/10/15 05:28:07;;;;;;;0.40;0.20;;;;;;;;;;5122975;28;20034;-58
2022/10/15 05:33:45;;;;;;;0.22;0.13;;;;;;;;;;5135509;28;20440;-58
2022/10/15 05:39:41;;;;;;;;;;;;;;;;;;;;;
2022/10/15 05:42:40;;;;;;;;;;;;;;;;;;;;;
2022/10/15 05:45:17;;;;;;;0.35;0.10;;;;;;;;;;5131540;28;20062;-58
2022/10/15 05:48:12;;;;;;;0.20;0.10;;;;;;;;;;5118069;28;20027;-58
2022/10/15 05:50:56;;;;;;;0.32;0.10;;;;;;;;;;5083721;28;20055;-58
2022/10/15 05:53:42;;;;;;;0.52;0.20;;;;;;;;;;5092289;28;20021;-58
2022/10/15 05:56:37;;;;;;;2.83;0.30;;;;;;;;;;5091554;28;20071;-58
2022/10/15 05:59:16;;;;;;;0.63;0.20;;;;;;;;;;5032254;28;20101;-58
2022/10/15 06:01:56;;;;;;;0.52;0.22;;;;;;;;;;5032097;28;20160;-58
2022/10/15 06:04:40;;;;;;;0.95;0.43;;;;;;;;;;5032006;28;20124;-58
2022/10/15 06:10:48;;;;;;;0.77;0.30;;;;;;;;;;5002652;28;20072;-58
2022/10/15 06:13:37;;;;;;;0.73;0.30;;;;;;;;;;5017560;28;20037;-58
2022/10/15 06:16:13;;;;;;;0.40;0.10;;;;;;;;;;5030653;28;20037;-58
2022/10/15 06:19:02;;;;;;;0.68;0.30;;;;;;;;;;5035321;28;20452;-58
2022/10/15 06:24:59;;;;;;;0.63;0.30;;;;;;;;;;5035466;28;20033;-60
2022/10/15 06:27:43;;;;;;;0.55;0.32;;;;;;;;;;5069251;28;20521;-58
2022/10/15 06:30:30;;;;;;;1.15;0.50;;;;;;;;;;5091699;27;20020;-58
2022/10/15 06:33:17;;;;;;;0.25;0.15;;;;;;;;;;5138531;27;20096;-58
2022/10/15 06:39:08;;;;;;;0.82;0.32;;;;;;;;;;5138279;27;20069;-58
2022/10/15 06:42:09;;;;;;;0.68;0.30;;;;;;;;;;5138437;27;20032;-58
2022/10/15 06:44:50;;;;;;;2.25;0.57;;;;;;;;;;5139195;27;20041;-60
2022/10/15 06:47:22;;;;;;;0.30;0.20;;;;;;;;;;5139152;27;20035;-60
2022/10/15 06:50:00;;;;;;;0.88;0.30;;;;;;;;;;5095306;28;20043;-60
2022/10/15 06:52:50;;;;;;;2.25;0.30;;;;;;;;;;5095869;28;20028;-59
2022/10/15 06:55:41;;;;;;;;;;;;;;;;;;;;;
2022/10/15 06:58:26;;;;;;;1.55;0.70;;;;;;;;;;5028907;28;20499;-58
2022/10/15 07:01:27;;;;;;;1.13;0.57;;;;;;;;;;5102039;28;20035;-59
2022/10/15 07:03:55;;;;;;;;;;;;;;;;;;5093676;28;20100;-59
2022/10/15 07:10:03;;;;;;;0.88;0.47;;;;;;;;;;5029951;28;20120;-59
2022/10/15 07:12:59;;;;;;;0.68;0.30;;;;;;;;;;5093447;28;20036;-59
2022/10/15 07:15:54;;;;;;;0.47;0.20;;;;;;;;;;5013381;28;20423;-58
2022/10/15 07:18:49;;;;;;;1.50;0.52;;;;;;;;;;5093186;28;20127;-58
2022/10/15 07:21:27;;;;;;;1.25;0.50;;;;;;;;;;5059908;28;20039;-58
2022/10/15 07:26:47;;;;;;;0.50;0.20;;;;;;;;;;5093094;28;20036;-59
2022/10/15 07:29:24;;;;;;;1.88;0.88;;;;;;;;;;5131559;27;20104;-58
2022/10/15 07:31:56;;;;;;;0.95;0.50;;;;;;;;;;5128932;27;20023;-59
2022/10/15 07:34:58;;;;;;;1.13;0.50;;;;;;;;;;5130323;27;20046;-59
2022/10/15 07:40:45;;;;;;;1.63;0.77;;;;;;;;;;5146723;27;20038;-60
2022/10/15 07:43:21;;;;;;;0.68;0.30;;;;;;;;;;5150723;27;20024;-58
2022/10/15 07:46:00;;;;;;;2.10;0.50;;;;;;;;;;5150211;27;20031;-58
2022/10/15 07:57:30;;;;;;;6.43;0.73;;;;;;;;;;5130155;28;20097;-59
2022/10/15 08:00:34;;;;;;;3.00;0.95;;;;;;;;;;5129524;28;20480;-60
2022/10/15 08:03:19;;;;;;;;;;;;;;;;;;;;;
2022/10/15 08:05:55;;;;;;;2.47;0.30;;;;;;;;;;5026674;28;20069;-58
2022/10/15 08:09:49;;;;;;;;;;;;;;;;;;;;;
2022/10/15 08:11:49;;;;;;;0.50;0.30;;;;;;;;;;5012531;28;20073;-60
2022/10/15 08:14:32;;;;;;;0.70;0.32;;;;;;;;;;5129306;28;20062;-60
2022/10/15 08:16:58;;;;;;;1.08;0.52;;;;;;;;;;5107513;28;20126;-60
2022/10/15 08:19:28;;;;;;;0.65;0.32;;;;;;;;;;5128550;28;20130;-60
2022/10/15 08:22:04;;;;;;;0.65;0.32;;;;;;;;;;5129344;28;20028;-60
2022/10/15 08:24:45;;;;;;;1.10;0.40;;;;;;;;;;5104760;28;20034;-59
2022/10/15 08:27:27;;;;;;;0.88;0.30;;;;;;;;;;5107764;28;20036;-59
2022/10/15 08:30:27;;;;;;;0.68;0.32;;;;;;;;;;5105475;28;20040;-59
2022/10/15 08:39:21;;;;;;;1.58;0.93;;;;;;;;;;5116828;28;20461;-59
2022/10/15 08:42:00;;;;;;;1.17;0.57;;;;;;;;;;5026037;28;20030;-60
2022/10/15 08:44:45;;;;;;;1.35;0.70;;;;;;;;;;5121439;28;20044;-59
2022/10/15 08:47:30;;;;;;;1.17;0.47;;;;;;;;;;5110366;28;20043;-59
2022/10/15 08:50:33;;;;;;;0.80;0.30;;;;;;;;;;5109773;28;20038;-58
2022/10/15 08:53:46;;;;;;;;;;;;;;;;;;;;;
2022/10/15 08:56:45;;;;;;;0.60;0.32;;;;;;;;;;5140462;27;20047;-60
2022/10/15 08:59:30;;;;;;;1.05;0.50;;;;;;;;;;5145149;27;20054;-60
2022/10/15 09:05:21;;;;;;;;;;;;;;;;;;;;;
2022/10/15 09:08:03;;;;;;;1.15;0.30;;;;;;;;;;5109593;27;20055;-60
2022/10/15 09:13:44;;;;;;;0.70;0.25;;;;;;;;;;5148947;28;20076;-60
2022/10/15 09:19:53;;;;;;;0.77;0.30;;;;;;;;;;5035491;28;20041;-60
2022/10/15 09:22:42;;;;;;;0.55;0.28;;;;;;;;;;5043706;28;20045;-60
2022/10/15 09:25:31;;;;;;;2.15;0.55;;;;;;;;;;5045595;28;20029;-59
2022/10/15 09:28:29;;;;;;;0.52;0.20;;;;;;;;;;5044738;28;20037;-60
2022/10/15 09:34:46;;;;;;;0.57;0.20;;;;;;;;;;5026534;28;20551;-59
2022/10/15 09:37:50;;;;;;;1.05;0.45;;;;;;;;;;5031031;28;20060;-59
2022/10/15 09:40:40;;;;;;;0.93;0.40;;;;;;;;;;5077253;28;20053;-58
2022/10/15 09:43:26;;;;;;;0.35;0.20;;;;;;;;;;5136517;27;20024;-59
2022/10/15 09:46:14;;;;;;;;;;;;;;;;;;;;;
2022/10/15 09:52:28;;;;;;;0.28;0.20;;;;;;;;;;5053792;27;20491;-59
2022/10/15 09:55:15;;;;;;;1.40;0.30;;;;;;;;;;5118817;27;20046;-59
2022/10/15 09:58:18;;;;;;;0.63;0.30;;;;;;;;;;5137165;27;20043;-59
2022/10/15 10:01:10;;;;;;;0.55;0.30;;;;;;;;;;5139032;27;20035;-59
2022/10/15 10:03:47;;;;;;;0.82;0.35;;;;;;;;;;5120362;27;20480;-59
2022/10/15 10:12:47;;;;;;;0.65;0.30;;;;;;;;;;5060572;28;20151;-59
2022/10/15 10:15:38;;;;;;;0.55;0.30;;;;;;;;;;5075275;28;20370;-59
2022/10/15 10:18:33;;;;;;;;;;;;;;;;;;;;;
2022/10/15 10:25:00;;;;;;;0.98;0.60;;;;;;;;;;5029122;28;20042;-59
2022/10/15 10:30:46;;;;;;;1.15;0.55;;;;;;;;;;5029014;28;20432;-59
2022/10/15 10:36:59;;;;;;;;;;;;;;;;;;;;;
2022/10/15 10:39:37;;;;;;;0.60;0.28;;;;;;;;;;5027175;28;20036;-59
2022/10/15 10:42:31;;;;;;;1.35;0.70;;;;;;;;;;5044874;28;20428;-59
2022/10/15 10:45:21;;;;;;;0.93;0.52;;;;;;;;;;5088410;28;20099;-59
2022/10/15 10:50:43;;;;;;;2.60;0.65;;;;;;;;;;5137051;27;20005;-59
2022/10/15 10:53:22;;;;;;;1.83;0.60;;;;;;;;;;5133173;27;20060;-59
2022/10/15 10:56:19;;;;;;;0.90;0.30;;;;;;;;;;5149783;27;20027;-59
2022/10/15 10:59:19;;;;;;;2.80;0.50;;;;;;;;;;5131064;28;20511;-59
2022/10/15 11:02:06;;;;;;;1.75;0.52;;;;;;;;;;5131060;28;20111;-59
2022/10/15 11:04:59;;;;;;;1.23;0.52;;;;;;;;;;5112234;28;20051;-59
2022/10/15 11:11:18;;;;;;;1.10;0.50;;;;;;;;;;5048585;28;20109;-59
2022/10/15 11:14:16;;;;;;;1.17;0.52;;;;;;;;;;5068361;28;20086;-59
2022/10/15 11:17:06;;;;;;;3.92;0.40;;;;;;;;;;5087432;28;20037;-59
2022/10/15 11:19:32;;;;;;;;;;;;;;;;;;5088243;28;20147;-59
2022/10/15 11:22:50;;;;;;;1.23;0.50;;;;;;;;;;5087233;28;19971;-59
2022/10/15 11:25:49;;;;;;;2.58;0.40;;;;;;;;;;5086799;28;20044;-59
2022/10/15 11:28:49;;;;;;;;;;;;;;;;;;;;;
2022/10/15 11:32:01;;;;;;;3.58;0.50;;;;;;;;;;5058776;28;20498;-59
2022/10/15 11:34:53;;;;;;;1.20;0.50;;;;;;;;;;5027926;28;20060;-59
2022/10/15 11:37:51;;;;;;;;;;;;;;;;;;;;;
2022/10/15 11:43:52;;;;;;;3.00;0.45;;;;;;;;;;5101339;28;20099;-59
2022/10/15 11:46:54;;;;;;;1.15;0.40;;;;;;;;;;5042570;28;20040;-59
2022/10/15 11:49:36;;;;;;;;;;;;;;;;;;;;;
2022/10/15 11:55:36;;;;;;;2.90;0.77;;;;;;;;;;5123980;28;20032;-59
2022/10/15 11:58:27;;;;;;;1.02;0.30;;;;;;;;;;5146654;27;20051;-59
2022/10/15 12:01:50;;;;;;;;;;;;;;;;;;;;;
2022/10/15 12:04:19;;;;;;;1.80;0.60;;;;;;;;;;5121898;27;20034;-59
2022/10/15 12:10:00;;;;;;;1.10;0.50;;;;;;;;;;5067178;28;20103;-59
2022/10/15 12:12:41;;;;;;;1.40;0.40;;;;;;;;;;5128792;27;20028;-59
2022/10/15 12:18:44;;;;;;;1.13;0.60;;;;;;;;;;5151076;27;20075;-59
2022/10/15 12:24:52;;;;;;;0.90;0.47;;;;;;;;;;5150748;27;20039;-58
2022/10/15 12:27:58;;;;;;;;;;;;;;;;;;;;;
2022/10/15 12:30:56;;;;;;;;;;;;;;;;;;;;;
2022/10/15 12:33:44;;;;;;;3.20;0.63;;;;;;;;;;5145809;27;20069;-58
2022/10/15 12:36:44;;;;;;;1.08;0.28;;;;;;;;;;5149677;27;20080;-59
2022/10/15 12:39:25;;;;;;;0.63;0.30;;;;;;;;;;5141819;27;20023;-57
2022/10/15 12:42:10;;;;;;;2.03;0.38;;;;;;;;;;5118898;27;20054;-57
2022/10/15 12:45:18;;;;;;;;;;;;;;;;;;;;;
2022/10/15 12:48:10;;;;;;;0.57;0.30;;;;;;;;;;5136703;27;20027;-57
2022/10/15 12:50:55;;;;;;;0.55;0.30;;;;;;;;;;5123024;27;20080;-55
2022/10/15 12:59:58;;;;;;;1.17;0.40;;;;;;;;;;5135809;27;20034;-57
2022/10/15 13:03:03;;;;;;;0.85;0.50;;;;;;;;;;5135693;27;20269;-57
2022/10/15 13:06:06;;;;;;;1.55;0.60;;;;;;;;;;5133338;27;20042;-57
2022/10/15 13:09:10;;;;;;;1.20;0.40;;;;;;;;;;5015928;28;20484;-57
2022/10/15 13:11:58;;;;;;;0.85;0.28;;;;;;;;;;5015939;28;20379;-57
2022/10/15 13:14:51;;;;;;;2.78;0.80;;;;;;;;;;5032978;28;20045;-57
2022/10/15 13:17:56;;;;;;;;;;;;;;;;;;;;;
2022/10/15 13:24:20;;;;;;;1.35;0.50;;;;;;;;;;5070968;27;20038;-56
2022/10/15 13:27:01;;;;;;;0.90;0.50;;;;;;;;;;5096693;28;20032;-57
2022/10/15 13:32:46;;;;;;;3.42;1.48;;;;;;;;;;5046712;28;20034;-57
2022/10/15 13:35:28;;;;;;;1.67;0.77;;;;;;;;;;5085227;28;20034;-56
2022/10/15 13:38:09;;;;;;;1.80;0.77;;;;;;;;;;5074469;28;20040;-57
2022/10/15 13:40:56;;;;;;;1.65;0.55;;;;;;;;;;5095694;28;20107;-57
2022/10/15 13:49:40;;;;;;;1.58;0.85;;;;;;;;;;5096272;28;20485;-57
2022/10/15 13:52:15;;;;;;;6.72;1.17;;;;;;;;;;5107004;27;20468;-57
2022/10/15 13:54:56;;;;;;;2.15;1.25;;;;;;;;;;5138623;27;20114;-57
2022/10/15 13:57:42;;;;;;;;;;;;;;;;;;;;;
2022/10/15 14:00:47;;;;;;;1.48;0.70;;;;;;;;;;5118117;28;20381;-57
2022/10/15 14:06:32;;;;;;;1.85;0.70;;;;;;;;;;5015691;28;20033;-57
2022/10/15 14:12:00;;;;;;;1.35;0.65;;;;;;;;;;4994784;28;20045;-56
2022/10/15 14:14:34;;;;;;;3.10;1.30;;;;;;;;;;5014924;28;20117;-57
2022/10/15 14:23:49;;;;;;;0.88;0.40;;;;;;;;;;5006058;28;20026;-56
2022/10/15 14:26:32;;;;;;;0.95;0.47;;;;;;;;;;4998602;28;20109;-56
2022/10/15 14:32:29;;;;;;;1.58;0.65;;;;;;;;;;5054627;28;20083;-57
2022/10/15 14:35:37;;;;;;;0.57;0.25;;;;;;;;;;5082136;28;20533;-57
2022/10/15 14:38:17;;;;;;;1.15;0.73;;;;;;;;;;5116449;28;20055;-57
2022/10/15 14:41:25;;;;;;;1.35;0.65;;;;;;;;;;5119360;28;20020;-57
2022/10/15 14:44:07;;;;;;;1.40;0.50;;;;;;;;;;5014389;28;20034;-57
2022/10/15 14:46:53;;;;;;;1.05;0.38;;;;;;;;;;4999581;28;20032;-56
2022/10/15 14:53:56;;;;;;;1.75;0.80;;;;;;;;;;5036432;28;20463;-57
2022/10/15 14:56:14;;;;;;;0.75;0.45;;;;;;;;;;5061063;28;20037;-57
2022/10/15 14:59:07;;;;;;;2.85;0.90;;;;;;;;;;5069325;28;20204;-57
2022/10/15 15:01:45;;;;;;;1.08;0.60;;;;;;;;;;5094927;28;20039;-57
2022/10/15 15:04:51;;;;;;;0.90;0.40;;;;;;;;;;5080092;28;20048;-57
2022/10/15 15:07:38;;;;;;;1.48;0.65;;;;;;;;;;5094691;28;20425;-57
2022/10/15 15:10:25;;;;;;;0.50;0.30;;;;;;;;;;5096238;28;20092;-56
2022/10/15 15:13:26;;;;;;;2.03;1.15;;;;;;;;;;5080902;28;20060;-58
2022/10/15 15:16:11;;;;;;;3.25;1.23;;;;;;;;;;5035899;28;20045;-57
2022/10/15 15:24:36;;;;;;;1.50;0.65;;;;;;;;;;5137473;27;20537;-57
2022/10/15 15:27:36;;;;;;;1.35;0.60;;;;;;;;;;5138412;27;20110;-57
2022/10/15 15:33:10;;;;;;;1.30;0.70;;;;;;;;;;5138008;27;20069;-57
2022/10/15 15:36:19;;;;;;;;;;;;;;;;;;;;;
2022/10/15 15:39:14;;;;;;;1.35;0.45;;;;;;;;;;5140089;27;20336;-57
2022/10/15 15:45:07;;;;;;;;;;;;;;;;;;5087975;28;20056;-55
2022/10/15 15:48:19;;;;;;;1.40;0.70;;;;;;;;;;5117664;27;20353;-57
2022/10/15 15:51:14;;;;;;;1.20;0.43;;;;;;;;;;5115462;27;20038;-57
2022/10/15 16:03:10;;;;;;;0.65;0.30;;;;;;;;;;5136717;27;20355;-57
2022/10/15 16:05:55;;;;;;;1.15;0.55;;;;;;;;;;5136926;27;20042;-55
2022/10/15 16:11:28;;;;;;;1.20;0.47;;;;;;;;;;5121240;27;20034;-57
2022/10/15 16:17:42;;;;;;;1.50;0.80;;;;;;;;;;5117376;27;20039;-57
2022/10/15 16:20:41;;;;;;;2.35;0.40;;;;;;;;;;5135822;27;20032;-56
2022/10/15 16:23:24;;;;;;;6.45;0.68;;;;;;;;;;5099022;27;20140;-54
2022/10/15 16:29:00;;;;;;;1.17;0.57;;;;;;;;;;5130463;27;20419;-56
2022/10/15 16:31:57;;;;;;;1.23;0.50;;;;;;;;;;5135789;27;20023;-56
2022/10/15 16:34:46;;;;;;;1.98;0.70;;;;;;;;;;5115088;27;20035;-57
2022/10/15 16:37:19;;;;;;;1.52;0.60;;;;;;;;;;5117351;27;20484;-54
2022/10/15 16:40:09;;;;;;;1.80;0.73;;;;;;;;;;5118186;27;20030;-57
2022/10/15 16:43:06;;;;;;;2.10;0.60;;;;;;;;;;5135493;27;20066;-57
2022/10/15 16:46:07;;;;;;;1.90;0.57;;;;;;;;;;5135885;27;20050;-57
2022/10/15 16:48:42;;;;;;;0.55;0.38;;;;;;;;;;5136528;27;20364;-56
2022/10/15 16:51:46;;;;;;;;;;;;;;;;;;;;;
2022/10/15 16:54:10;;;;;;;2.33;0.93;;;;;;;;;;5133668;27;20388;-57
2022/10/15 16:56:37;;;;;;;0.88;0.43;;;;;;;;;;5116865;27;20043;-57
2022/10/15 16:59:06;;;;;;;1.40;0.60;;;;;;;;;;5116270;27;20473;-56
2022/10/15 17:01:50;;;;;;;6.38;0.77;;;;;;;;;;5133751;27;20039;-57
2022/10/15 17:13:27;;;;;;;1.63;0.82;;;;;;;;;;4992095;28;20026;-56
2022/10/15 17:16:19;;;;;;;1.38;0.65;;;;;;;;;;5054667;28;20037;-57
2022/10/15 17:22:38;;;;;;;1.52;0.63;;;;;;;;;;5098042;28;20031;-57
2022/10/15 17:25:18;;;;;;;1.08;0.57;;;;;;;;;;5134223;28;20039;-58
2022/10/15 17:27:46;;;;;;;1.10;0.57;;;;;;;;;;5130097;28;20087;-58
2022/10/15 17:30:42;;;;;;;1.17;0.52;;;;;;;;;;5120060;28;20035;-58
2022/10/15 17:33:55;;;;;;;1.17;0.68;;;;;;;;;;5134200;28;20054;-57
2022/10/15 17:36:46;;;;;;;1.33;0.85;;;;;;;;;;5041383;28;20037;-58
2022/10/15 17:39:16;;;;;;;2.28;1.20;;;;;;;;;;5116633;28;20110;-57
2022/10/15 17:45:54;;;;;;;1.13;0.60;;;;;;;;;;5072673;28;20036;-57
2022/10/15 17:48:34;;;;;;;4.18;0.77;;;;;;;;;;5073408;28;20029;-56
2022/10/15 17:54:17;;;;;;;;;;;;;;;;;;;;;
2022/10/15 17:57:05;;;;;;;3.60;1.27;;;;;;;;;;5072085;28;20521;-58
2022/10/15 18:03:24;;;;;;;1.33;0.75;;;;;;;;;;5011307;28;20030;-58
2022/10/15 18:06:26;;;;;;;1.88;1.08;;;;;;;;;;4939568;28;20555;-57
2022/10/15 18:09:15;;;;;;;4.07;1.17;;;;;;;;;;4938191;29;20039;-58
2022/10/15 18:11:47;;;;;;;1.38;0.47;;;;;;;;;;4938216;29;20421;-57
2022/10/15 18:17:39;;;;;;;2.05;1.30;;;;;;;;;;4937624;29;20095;-58
2022/10/15 18:20:34;;;;;;;2.33;1.17;;;;;;;;;;4973146;28;20043;-56
2022/10/15 18:23:04;;;;;;;2.78;0.80;;;;;;;;;;4880603;29;20132;-57
2022/10/15 18:25:34;;;;;;;1.92;0.88;;;;;;;;;;4975914;28;20370;-57
2022/10/15 18:31:04;;;;;;;1.10;0.68;;;;;;;;;;4968009;28;20004;-57
2022/10/15 18:34:11;;;;;;;1.40;0.63;;;;;;;;;;4999237;28;20117;-57
2022/10/15 18:37:10;;;;;;;3.95;0.90;;;;;;;;;;4936805;29;20443;-57
2022/10/15 18:43:15;;;;;;;1.83;0.75;;;;;;;;;;5066557;27;20030;-57
2022/10/15 18:45:57;;;;;;;1.88;1.05;;;;;;;;;;5018399;28;20392;-57
2022/10/15 18:58:26;;;;;;;1.63;0.93;;;;;;;;;;5128163;27;20083;-57
2022/10/15 19:01:17;;;;;;;1.52;0.73;;;;;;;;;;5134171;27;20042;-58
2022/10/15 19:04:11;;;;;;;3.75;0.82;;;;;;;;;;5124153;27;20035;-57
2022/10/15 19:06:52;;;;;;;2.05;0.82;;;;;;;;;;5120673;27;20031;-57
2022/10/15 19:09:31;;;;;;;1.00;0.50;;;;;;;;;;5119463;27;20103;-57
2022/10/15 19:14:50;;;;;;;1.45;0.75;;;;;;;;;;5138350;27;20384;-57
2022/10/15 19:17:28;;;;;;;4.60;0.55;;;;;;;;;;5137665;27;20027;-58
2022/10/15 19:23:02;;;;;;;2.75;1.10;;;;;;;;;;5054778;28;20102;-57
2022/10/15 19:25:32;;;;;;;1.20;0.57;;;;;;;;;;5038768;28;20072;-57
2022/10/15 19:28:30;;;;;;;0.95;0.57;;;;;;;;;;5014965;28;20034;-58
2022/10/15 19:31:12;;;;;;;1.40;0.65;;;;;;;;;;5028651;28;20122;-58
2022/10/15 19:33:57;;;;;;;;;;;;;;;;;;;;;
2022/10/15 19:37:05;;;;;;;1.40;0.70;;;;;;;;;;5044410;28;20354;-58
2022/10/15 19:39:46;;;;;;;2.85;0.93;;;;;;;;;;5045965;28;20032;-56
2022/10/15 19:42:47;;;;;;;4.13;0.50;;;;;;;;;;5083136;28;20086;-57
2022/10/15 19:45:31;;;;;;;4.93;0.85;;;;;;;;;;4995040;28;20046;-57
2022/10/15 19:48:06;;;;;;;4.80;0.98;;;;;;;;;;4993994;28;20034;-58
2022/10/15 19:57:13;;;;;;;1.38;0.55;;;;;;;;;;5034007;28;20026;-56
2022/10/15 19:59:52;;;;;;;2.03;1.35;;;;;;;;;;5033422;28;20059;-58
2022/10/15 20:05:36;;;;;;;2.45;1.10;;;;;;;;;;5086250;27;20036;-57
2022/10/15 20:08:22;;;;;;;2.15;0.60;;;;;;;;;;5141139;27;20019;-56
2022/10/15 20:11:09;;;;;;;2.05;0.75;;;;;;;;;;5136504;27;20030;-57
2022/10/15 20:13:43;;;;;;;1.00;0.55;;;;;;;;;;5117402;27;20105;-56
2022/10/15 20:19:23;;;;;;;2.05;0.80;;;;;;;;;;5011875;28;20041;-57
2022/10/15 20:25:11;;;;;;;1.27;0.68;;;;;;;;;;5012926;28;20593;-55
2022/10/15 20:27:46;;;;;;;1.48;0.90;;;;;;;;;;5011897;28;20147;-55
2022/10/15 20:30:38;;;;;;;3.85;1.13;;;;;;;;;;5017424;28;20489;-56
2022/10/15 20:39:20;;;;;;;;;;;;;;;;;;;;;
2022/10/15 20:45:13;;;;;;;2.15;1.00;;;;;;;;;;5070710;28;20039;-57
2022/10/15 20:51:00;;;;;;;1.30;0.70;;;;;;;;;;5063956;28;20131;-58
2022/10/15 20:54:01;;;;;;;1.75;0.60;;;;;;;;;;5072296;28;20021;-56
2022/10/15 21:02:14;;;;;;;;;;;;;;;;;;5137711;27;20034;-58
2022/10/15 21:04:52;;;;;;;1.83;0.90;;;;;;;;;;5142433;27;19908;-58
2022/10/15 21:07:37;;;;;;;6.60;1.02;;;;;;;;;;5099922;28;20137;-59
2022/10/15 21:10:14;;;;;;;2.35;0.95;;;;;;;;;;5099091;28;20024;-58
2022/10/15 21:16:04;;;;;;;1.63;0.82;;;;;;;;;;5002454;28;20048;-57
2022/10/15 21:21:52;;;;;;;1.52;0.82;;;;;;;;;;5093664;28;20050;-57
2022/10/15 21:24:33;;;;;;;2.33;1.05;;;;;;;;;;5099868;28;20039;-57
2022/10/15 21:27:09;;;;;;;2.35;0.80;;;;;;;;;;5100056;28;20517;-55
2022/10/15 21:30:07;;;;;;;1.65;0.80;;;;;;;;;;5100346;28;20131;-55
2022/10/15 21:32:55;;;;;;;1.35;0.77;;;;;;;;;;5085658;28;20094;-57
2022/10/15 21:36:04;;;;;;;2.20;0.95;;;;;;;;;;5100572;28;20032;-57
2022/10/15 21:39:05;;;;;;;1.67;0.90;;;;;;;;;;5064340;28;20032;-57
2022/10/15 21:41:34;;;;;;;;;;;;;;;;;;5129372;27;20053;-58
2022/10/15 21:44:18;;;;;;;1.30;0.75;;;;;;;;;;5147416;27;19904;-57
2022/10/15 21:52:50;;;;;;;;;;;;;;;;;;;;;
2022/10/15 21:55:39;;;;;;;1.42;0.93;;;;;;;;;;5146900;27;20110;-58
2022/10/15 21:58:43;;;;;;;;;;;;;;;;;;;;;
2022/10/15 22:01:32;;;;;;;2.50;0.85;;;;;;;;;;5143207;27;20055;-56
2022/10/15 22:04:08;;;;;;;2.35;1.02;;;;;;;;;;5148778;27;20046;-57
2022/10/15 22:09:40;;;;;;;1.60;1.08;;;;;;;;;;5099870;27;20054;-57
2022/10/15 22:21:17;;;;;;;;;;;;;;;;;;;;;
2022/10/15 22:24:28;;;;;;;5.53;1.35;;;;;;;;;;5127823;27;20054;-55
2022/10/15 22:27:07;;;;;;;1.85;1.20;;;;;;;;;;5027628;28;20137;-57
2022/10/15 22:30:03;;;;;;;2.22;1.45;;;;;;;;;;5044037;28;20026;-57
2022/10/15 22:32:37;;;;;;;2.58;1.50;;;;;;;;;;4984282;28;20127;-58
2022/10/15 22:35:17;;;;;;;2.20;1.17;;;;;;;;;;5083751;28;20065;-57
2022/10/15 22:38:02;;;;;;;2.25;0.68;;;;;;;;;;5140857;27;20058;-56
2022/10/15 22:40:42;;;;;;;;;;;;;;;;;;;;;
2022/10/15 22:43:31;;;;;;;1.83;1.00;;;;;;;;;;5147273;27;20433;-58
2022/10/15 22:46:19;;;;;;;2.30;1.10;;;;;;;;;;5147323;27;20038;-57
2022/10/15 22:52:25;;;;;;;;;;;;;;;;;;;;;
2022/10/15 23:01:19;;;;;;;2.55;1.15;;;;;;;;;;5145435;27;20170;-57
2022/10/15 23:07:03;;;;;;;2.17;1.02;;;;;;;;;;5146960;27;20046;-57
2022/10/15 23:18:56;;;;;;;1.27;0.82;;;;;;;;;;5146495;27;20433;-58
2022/10/15 23:22:01;;;;;;;1.63;0.90;;;;;;;;;;5147298;27;20052;-57
2022/10/15 23:24:39;;;;;;;2.17;1.20;;;;;;;;;;5127697;27;20031;-57
2022/10/15 23:27:27;;;;;;;5.47;1.45;;;;;;;;;;5144976;27;20023;-57
2022/10/15 23:30:23;;;;;;;1.55;0.90;;;;;;;;;;5141841;27;20039;-57